Time;durP1;ratioP1;P1;durP2;ratioP2;P2;SDS_P1;SDS_P2;PMS_P1;PMS_P2;Temp;Humidity;BMP_temperature;BMP_pressure;BME280_temperature;BME280_humidity;BME280_pressure;Samples;Min_cycle;Max_cycle;Signal;HPM_P1;HPM_P2
2021/09/04 00:02:00;;;;;;;10.02;6.05;;;;;;;12.43;100.00;96004.31;4991412;28;20854;-76
2021/09/04 00:04:25;;;;;;;6.87;6.10;;;;;;;12.29;100.00;96010.41;4991413;28;20429;-75
2021/09/04 00:06:52;;;;;;;8.17;6.23;;;;;;;12.29;100.00;96007.81;4989905;28;20425;-77
2021/09/04 00:09:17;;;;;;;9.52;6.40;;;;;;;12.41;100.00;96006.16;4991204;28;20414;-77
2021/09/04 00:11:43;;;;;;;7.67;6.47;;;;;;;12.35;100.00;96010.84;4991298;28;20492;-77
2021/09/04 00:14:08;;;;;;;7.10;6.40;;;;;;;12.37;100.00;96010.72;4991333;28;20418;-76
2021/09/04 00:16:34;;;;;;;8.48;5.93;;;;;;;12.33;100.00;96014.47;4989629;28;20426;-77
2021/09/04 00:18:59;;;;;;;8.15;6.50;;;;;;;12.38;100.00;96006.38;4991233;28;20474;-77
2021/09/04 00:21:25;;;;;;;8.23;6.17;;;;;;;12.27;100.00;96002.72;4989955;28;20528;-76
2021/09/04 00:23:51;;;;;;;9.30;6.10;;;;;;;12.25;100.00;96006.34;4989931;28;20422;-77
2021/09/04 00:26:17;;;;;;;6.50;5.65;;;;;;;12.20;100.00;96001.47;4989759;28;20493;-76
2021/09/04 00:28:42;;;;;;;7.13;5.30;;;;;;;12.23;100.00;95996.06;4991117;28;20453;-77
2021/09/04 00:31:08;;;;;;;7.47;5.00;;;;;;;12.20;100.00;95995.41;4990984;28;20426;-77
2021/09/04 00:33:33;;;;;;;6.88;5.65;;;;;;;12.17;100.00;95996.47;4989990;28;20517;-76
2021/09/04 00:35:59;;;;;;;6.72;5.88;;;;;;;12.19;100.00;95997.19;4990913;28;20426;-76
2021/09/04 00:38:24;;;;;;;8.23;5.93;;;;;;;12.28;100.00;95995.78;4989983;28;20971;-77
2021/09/04 00:40:51;;;;;;;6.63;5.47;;;;;;;12.37;100.00;95986.53;4991090;28;20440;-77
2021/09/04 00:43:16;;;;;;;7.07;6.38;;;;;;;12.48;100.00;96002.22;4991085;28;20967;-77
2021/09/04 00:45:42;;;;;;;8.07;6.67;;;;;;;12.33;100.00;95997.13;4992187;28;20422;-77
2021/09/04 00:48:07;;;;;;;6.80;5.37;;;;;;;12.15;100.00;95992.31;4994878;28;20509;-77
2021/09/04 00:50:34;;;;;;;6.88;6.10;;;;;;;11.95;100.00;96004.81;4994710;28;20470;-77
2021/09/04 00:53:01;;;;;;;9.60;6.60;;;;;;;11.97;100.00;95999.53;4994782;28;20473;-76
2021/09/04 00:55:28;;;;;;;5.95;5.35;;;;;;;12.04;100.00;95999.03;4993347;28;20493;-76
2021/09/04 00:57:55;;;;;;;7.97;6.00;;;;;;;12.00;100.00;95996.72;4994613;28;20430;-76
2021/09/04 01:00:22;;;;;;;9.45;6.72;;;;;;;11.90;100.00;95999.06;4993254;28;20422;-76
2021/09/04 01:02:47;;;;;;;7.40;6.07;;;;;;;11.84;100.00;95994.28;4994641;28;20501;-76
2021/09/04 01:05:13;;;;;;;12.63;6.77;;;;;;;11.86;100.00;95995.88;4994342;28;20896;-77
2021/09/04 01:07:38;;;;;;;10.40;7.40;;;;;;;11.90;100.00;96000.84;4994559;28;20422;-76
2021/09/04 01:10:06;;;;;;;8.90;6.30;;;;;;;11.95;100.00;95991.84;4994261;28;20924;-76
2021/09/04 01:12:32;;;;;;;5.95;5.35;;;;;;;11.84;100.00;95994.28;4994179;28;20518;-76
2021/09/04 01:14:59;;;;;;;6.15;5.18;;;;;;;11.73;100.00;95991.53;4994309;28;20421;-76
2021/09/04 01:17:24;;;;;;;7.15;5.63;;;;;;;11.71;100.00;95993.38;4994096;28;20454;-77
2021/09/04 01:19:50;;;;;;;8.13;6.22;;;;;;;11.72;100.00;95979.50;4994161;28;20453;-77
2021/09/04 01:22:16;;;;;;;8.13;6.43;;;;;;;11.79;100.00;95978.13;4992933;28;20430;-76
2021/09/04 01:24:47;;;;;;;11.52;7.00;;;;;;;11.79;100.00;95980.72;4993127;28;20415;-76
2021/09/04 01:27:14;;;;;;;10.25;7.70;;;;;;;11.80;100.00;95972.88;4992527;28;20414;-77
2021/09/04 01:29:39;;;;;;;11.32;8.20;;;;;;;11.85;100.00;95977.78;4993901;28;20434;-76
2021/09/04 01:32:05;;;;;;;12.15;8.43;;;;;;;11.82;100.00;95972.75;4992784;28;20477;-76
2021/09/04 01:34:31;;;;;;;10.70;7.45;;;;;;;11.94;100.00;95971.16;4992934;28;20430;-77
2021/09/04 01:36:56;;;;;;;10.47;7.47;;;;;;;11.91;100.00;95973.97;4993765;28;20765;-76
2021/09/04 01:39:22;;;;;;;13.07;7.07;;;;;;;11.74;100.00;95973.25;4993780;28;20904;-77
2021/09/04 01:41:49;;;;;;;11.85;7.30;;;;;;;11.67;100.00;95976.34;4993810;28;20410;-76
2021/09/04 01:44:16;;;;;;;8.98;6.35;;;;;;;11.71;100.00;95976.03;4993784;28;20422;-77
2021/09/04 01:46:41;;;;;;;10.00;6.73;;;;;;;11.78;100.00;95971.28;4993576;28;20505;-77
2021/09/04 01:49:07;;;;;;;10.80;7.33;;;;;;;11.80;100.00;95961.66;4993779;28;20433;-76
2021/09/04 01:51:32;;;;;;;9.70;7.00;;;;;;;11.63;100.00;95973.09;4993572;28;20434;-76
2021/09/04 01:53:59;;;;;;;8.20;6.57;;;;;;;11.53;100.00;95972.88;4993657;28;20448;-76
2021/09/04 01:56:24;;;;;;;8.85;6.65;;;;;;;11.55;100.00;95973.59;4992582;28;20920;-77
2021/09/04 01:58:49;;;;;;;7.25;6.53;;;;;;;11.59;100.00;95969.03;4991744;28;20506;-76
2021/09/04 02:01:16;;;;;;;7.43;6.33;;;;;;;11.57;100.00;95966.56;4993583;28;20788;-77
2021/09/04 02:03:42;;;;;;;7.20;6.32;;;;;;;11.61;100.00;95969.78;4992175;28;20445;-77
2021/09/04 02:06:07;;;;;;;8.18;7.22;;;;;;;11.54;100.00;95969.34;4992028;28;20509;-77
2021/09/04 02:08:33;;;;;;;7.35;6.55;;;;;;;11.52;100.00;95972.97;4992068;28;20426;-76
2021/09/04 02:10:59;;;;;;;6.70;6.00;;;;;;;11.53;100.00;95969.44;4991902;28;20422;-77
2021/09/04 02:13:25;;;;;;;8.32;6.32;;;;;;;11.54;100.00;95971.13;4992007;28;20422;-77
2021/09/04 02:15:51;;;;;;;6.55;5.90;;;;;;;11.55;100.00;95965.00;4993039;28;20418;-77
2021/09/04 02:18:20;;;;;;;8.80;6.75;;;;;;;11.48;100.00;95958.53;4993212;28;20472;-77
2021/09/04 02:20:45;;;;;;;9.55;6.32;;;;;;;11.49;100.00;95960.19;4993201;28;20440;-77
2021/09/04 02:23:11;;;;;;;7.82;5.93;;;;;;;11.46;100.00;95958.63;4993008;28;20414;-77
2021/09/04 02:25:36;;;;;;;8.27;6.97;;;;;;;11.38;100.00;95961.72;4996155;28;20422;-76
2021/09/04 02:28:02;;;;;;;7.95;5.63;;;;;;;11.34;100.00;95960.22;4997290;28;20422;-77
2021/09/04 02:30:27;;;;;;;7.63;6.17;;;;;;;11.48;100.00;95955.94;4994297;28;20433;-76
2021/09/04 02:32:52;;;;;;;8.50;6.13;;;;;;;11.27;100.00;95948.59;4993195;28;20418;-76
2021/09/04 02:35:19;;;;;;;7.53;6.00;;;;;;;11.25;100.00;95957.38;4992934;28;20422;-76
2021/09/04 02:37:45;;;;;;;6.70;5.20;;;;;;;11.27;100.00;95945.13;4993244;28;20422;-75
2021/09/04 02:40:11;;;;;;;9.20;5.67;;;;;;;11.28;100.00;95946.81;4991432;28;20426;-76
2021/09/04 02:42:36;;;;;;;6.55;5.38;;;;;;;11.36;100.00;95944.56;5014146;23;20904;-76
2021/09/04 02:45:02;;;;;;;6.60;5.35;;;;;;;11.31;100.00;95946.59;5032080;28;20419;-76
2021/09/04 02:47:28;;;;;;;6.05;5.45;;;;;;;11.17;100.00;95941.47;5031788;28;20888;-76
2021/09/04 02:49:53;;;;;;;6.57;5.83;;;;;;;11.10;100.00;95947.03;5032017;28;20418;-76
2021/09/04 02:52:20;;;;;;;5.77;5.07;;;;;;;11.05;100.00;95937.88;5031840;28;20822;-76
2021/09/04 02:54:46;;;;;;;6.38;5.57;;;;;;;11.03;100.00;95950.09;5031795;28;20473;-76
2021/09/04 02:57:11;;;;;;;6.45;5.72;;;;;;;11.08;100.00;95943.69;5031509;28;20971;-76
2021/09/04 02:59:36;;;;;;;12.48;6.85;;;;;;;11.12;100.00;95933.97;5031808;28;20411;-75
2021/09/04 03:02:02;;;;;;;7.73;6.93;;;;;;;11.26;100.00;95940.88;5031694;28;20415;-75
2021/09/04 03:04:27;;;;;;;11.10;7.83;;;;;;;11.18;100.00;95932.75;5030290;28;20427;-75
2021/09/04 03:06:53;;;;;;;7.93;6.80;;;;;;;11.06;100.00;95936.97;5031420;28;20419;-75
2021/09/04 03:09:20;;;;;;;10.70;6.27;;;;;;;11.00;100.00;95943.34;5031146;28;20418;-75
2021/09/04 03:11:46;;;;;;;8.98;6.22;;;;;;;11.00;100.00;95945.09;5031299;28;20439;-75
2021/09/04 03:14:11;;;;;;;8.07;6.77;;;;;;;10.83;100.00;95934.03;5031497;28;20422;-75
2021/09/04 03:16:37;;;;;;;13.00;6.53;;;;;;;10.87;100.00;95937.25;5031224;28;20450;-75
2021/09/04 03:19:02;;;;;;;8.07;6.57;;;;;;;10.98;100.00;95939.19;5030121;28;20430;-75
2021/09/04 03:21:28;;;;;;;6.55;5.80;;;;;;;10.98;100.00;95941.78;5031439;28;20407;-76
2021/09/04 03:23:53;;;;;;;6.23;5.63;;;;;;;10.95;100.00;95934.19;5029920;28;20505;-76
2021/09/04 03:26:20;;;;;;;6.90;6.20;;;;;;;10.86;100.00;95935.56;5029728;28;20422;-76
2021/09/04 03:28:45;;;;;;;10.90;6.20;;;;;;;10.82;100.00;95929.75;5031425;28;21009;-76
2021/09/04 03:31:11;;;;;;;6.47;5.80;;;;;;;10.86;100.00;95930.38;5031142;28;20430;-76
2021/09/04 03:33:36;;;;;;;8.33;6.17;;;;;;;10.89;100.00;95923.25;5031120;28;20426;-76
2021/09/04 03:36:03;;;;;;;9.33;6.40;;;;;;;10.88;100.00;95925.97;5030859;28;20481;-77
2021/09/04 03:38:28;;;;;;;7.65;6.95;;;;;;;10.80;100.00;95923.84;5030969;28;20423;-76
2021/09/04 03:40:54;;;;;;;13.90;6.47;;;;;;;10.79;100.00;95924.78;5030961;28;20835;-76
2021/09/04 03:43:20;;;;;;;10.77;5.97;;;;;;;10.81;100.00;95922.91;5030788;28;20415;-76
2021/09/04 03:45:46;;;;;;;8.77;6.47;;;;;;;10.78;100.00;95919.66;5030989;28;20768;-76
2021/09/04 03:48:11;;;;;;;7.88;6.35;;;;;;;10.72;100.00;95926.06;5030935;28;20502;-76
2021/09/04 03:50:37;;;;;;;11.10;6.60;;;;;;;10.73;100.00;95919.97;5030884;28;20451;-76
2021/09/04 03:53:02;;;;;;;6.90;6.20;;;;;;;10.75;100.00;95922.44;5029473;28;20824;-75
2021/09/04 03:55:27;;;;;;;8.97;6.27;;;;;;;10.80;100.00;95920.41;5030790;28;20820;-75
2021/09/04 03:57:53;;;;;;;6.57;5.70;;;;;;;10.81;100.00;95916.91;5030872;28;20506;-75
2021/09/04 04:00:20;;;;;;;6.95;6.15;;;;;;;10.80;100.00;95916.06;5029531;28;20407;-75
2021/09/04 04:02:46;;;;;;;7.93;6.05;;;;;;;10.80;100.00;95923.00;5030766;28;20415;-75
2021/09/04 04:05:12;;;;;;;8.63;5.47;;;;;;;10.80;100.00;95915.25;5029189;28;20426;-75
2021/09/04 04:07:37;;;;;;;6.78;5.82;;;;;;;10.76;100.00;95921.53;5030601;28;20916;-75
2021/09/04 04:10:03;;;;;;;8.02;5.78;;;;;;;10.76;100.00;95917.19;5030549;28;20665;-75
2021/09/04 04:12:28;;;;;;;10.23;6.50;;;;;;;10.82;100.00;95910.78;5030505;28;20454;-75
2021/09/04 04:14:54;;;;;;;6.40;5.80;;;;;;;10.79;100.00;95913.56;5030578;28;20449;-75
2021/09/04 04:17:21;;;;;;;5.72;5.15;;;;;;;10.72;100.00;95913.13;5030366;28;20982;-75
2021/09/04 04:19:46;;;;;;;7.20;5.72;;;;;;;10.66;100.00;95911.72;5030672;28;20426;-75
2021/09/04 04:22:11;;;;;;;8.82;5.63;;;;;;;10.64;100.00;95917.91;5034534;28;20984;-75
2021/09/04 04:24:37;;;;;;;6.93;5.03;;;;;;;10.53;100.00;95916.00;5034606;28;20422;-75
2021/09/04 04:27:03;;;;;;;7.87;5.90;;;;;;;10.46;100.00;95909.53;5034331;28;20490;-75
2021/09/04 04:29:29;;;;;;;6.43;5.60;;;;;;;10.46;100.00;95911.28;5034720;28;21014;-75
2021/09/04 04:31:54;;;;;;;6.40;5.27;;;;;;;10.38;100.00;95912.56;5034444;28;20485;-75
2021/09/04 04:34:21;;;;;;;6.73;5.13;;;;;;;10.34;100.00;95916.25;5034507;28;20422;-75
2021/09/04 04:36:46;;;;;;;6.15;5.13;;;;;;;10.29;100.00;95914.88;5034200;28;20415;-75
2021/09/04 04:39:13;;;;;;;7.47;5.60;;;;;;;10.24;100.00;95920.28;5034367;28;20419;-75
2021/09/04 04:41:38;;;;;;;6.60;5.55;;;;;;;10.26;100.00;95915.88;5034361;28;20498;-75
2021/09/04 04:44:04;;;;;;;5.80;5.25;;;;;;;10.30;100.00;95913.94;5034293;28;20517;-75
2021/09/04 04:46:29;;;;;;;7.18;5.22;;;;;;;10.40;100.00;95921.06;5034174;28;20456;-75
2021/09/04 04:48:55;;;;;;;7.18;5.57;;;;;;;10.39;100.00;95926.34;5034324;28;20432;-75
2021/09/04 04:51:21;;;;;;;8.70;6.47;;;;;;;10.38;100.00;95911.72;5032800;28;20426;-75
2021/09/04 04:53:47;;;;;;;8.02;6.53;;;;;;;10.38;100.00;95924.66;5034030;28;20419;-76
2021/09/04 04:56:12;;;;;;;9.25;5.80;;;;;;;10.44;100.00;95919.13;5033927;28;20426;-76
2021/09/04 04:58:38;;;;;;;8.73;6.00;;;;;;;10.48;100.00;95917.19;5034134;28;20897;-75
2021/09/04 05:01:03;;;;;;;7.40;6.10;;;;;;;10.40;100.00;95921.06;5034161;28;20415;-75
2021/09/04 05:03:28;;;;;;;7.47;6.13;;;;;;;10.38;100.00;95922.94;5033875;28;20419;-75
2021/09/04 05:05:54;;;;;;;9.73;6.33;;;;;;;10.18;100.00;95912.88;5033785;28;20419;-75
2021/09/04 05:08:21;;;;;;;7.97;6.17;;;;;;;10.18;100.00;95921.47;5033873;28;20418;-76
2021/09/04 05:10:46;;;;;;;6.65;5.95;;;;;;;10.25;100.00;95934.06;5033791;28;20480;-76
2021/09/04 05:13:12;;;;;;;9.30;6.80;;;;;;;10.24;100.00;95930.63;5033706;28;20407;-76
2021/09/04 05:15:37;;;;;;;9.33;6.60;;;;;;;10.29;100.00;95927.81;5032248;28;20920;-76
2021/09/04 05:18:03;;;;;;;6.90;6.07;;;;;;;10.38;100.00;95933.28;5033755;28;20418;-76
2021/09/04 05:20:28;;;;;;;8.60;6.25;;;;;;;10.51;100.00;95935.13;5034164;28;20788;-76
2021/09/04 05:22:53;;;;;;;8.18;6.30;;;;;;;10.64;100.00;95936.03;5033344;28;20415;-76
2021/09/04 05:25:21;;;;;;;12.73;6.70;;;;;;;10.69;100.00;95934.03;5033351;28;20844;-75
2021/09/04 05:27:46;;;;;;;8.23;6.32;;;;;;;10.78;100.00;95940.41;5033573;28;20415;-75
2021/09/04 05:30:12;;;;;;;14.23;6.30;;;;;;;10.84;100.00;95937.44;5033420;28;20430;-75
2021/09/04 05:32:38;;;;;;;10.50;6.40;;;;;;;10.94;100.00;95930.78;5033036;28;20456;-75
2021/09/04 05:35:04;;;;;;;8.10;6.80;;;;;;;11.09;100.00;95941.94;5033377;28;20422;-76
2021/09/04 05:37:30;;;;;;;8.27;6.68;;;;;;;11.22;100.00;95942.00;5032932;28;20484;-76
2021/09/04 05:39:55;;;;;;;9.37;6.47;;;;;;;11.34;100.00;95939.47;5033367;28;20422;-76
2021/09/04 05:42:22;;;;;;;9.07;6.63;;;;;;;11.47;100.00;95938.72;5033009;28;20494;-76
2021/09/04 05:44:47;;;;;;;8.55;6.68;;;;;;;11.59;100.00;95933.56;5033478;28;20469;-77
2021/09/04 05:47:13;;;;;;;7.60;6.07;;;;;;;11.68;100.00;95936.47;5032970;28;20426;-77
2021/09/04 05:49:39;;;;;;;8.60;6.10;;;;;;;11.75;100.00;95940.34;5033286;28;20427;-78
2021/09/04 05:52:04;;;;;;;7.45;6.28;;;;;;;11.80;100.00;95946.09;5033099;28;20418;-79
2021/09/04 05:54:30;;;;;;;8.20;6.33;;;;;;;11.74;100.00;95949.91;5033570;28;20454;-78
2021/09/04 05:56:55;;;;;;;6.67;6.07;;;;;;;11.67;100.00;95943.44;5033645;28;20473;-78
2021/09/04 05:59:22;;;;;;;6.70;5.97;;;;;;;11.77;100.00;95946.28;5033569;28;20415;-78
2021/09/04 06:01:48;;;;;;;6.10;5.50;;;;;;;11.79;100.00;95945.25;5033355;28;20885;-78
2021/09/04 06:04:13;;;;;;;7.40;5.97;;;;;;;11.96;100.00;95935.56;5033006;28;20421;-78
2021/09/04 06:06:39;;;;;;;5.97;5.47;;;;;;;12.17;100.00;95943.72;5031332;28;20427;-79
2021/09/04 06:09:05;;;;;;;6.32;5.68;;;;;;;12.22;100.00;95939.88;5032883;28;20423;-78
2021/09/04 06:11:31;;;;;;;6.53;5.10;;;;;;;12.21;100.00;95945.19;5033257;28;20588;-78
2021/09/04 06:13:56;;;;;;;6.37;5.77;;;;;;;12.29;100.00;95938.53;5032792;28;20863;-78
2021/09/04 06:16:23;;;;;;;7.72;5.80;;;;;;;12.31;100.00;95934.06;5031288;28;20686;-78
2021/09/04 06:18:49;;;;;;;12.52;5.78;;;;;;;12.41;100.00;95939.47;5032681;28;20455;-78
2021/09/04 06:21:14;;;;;;;6.70;5.72;;;;;;;12.53;100.00;95938.66;5031529;28;20462;-78
2021/09/04 06:23:39;;;;;;;7.23;6.53;;;;;;;12.71;100.00;95933.94;5032113;28;20427;-77
2021/09/04 06:26:05;;;;;;;10.07;6.20;;;;;;;12.68;100.00;95934.19;5032691;28;20419;-77
2021/09/04 06:28:30;;;;;;;9.10;6.53;;;;;;;12.69;100.00;95935.84;5034159;28;20427;-77
2021/09/04 06:30:56;;;;;;;7.97;6.40;;;;;;;12.82;100.00;95947.03;5032621;28;20411;-77
2021/09/04 06:33:22;;;;;;;11.53;6.60;;;;;;;13.13;100.00;95937.13;5034328;28;20477;-77
2021/09/04 06:35:48;;;;;;;8.25;6.18;;;;;;;13.37;100.00;95944.16;5032492;28;20435;-77
2021/09/04 06:38:13;;;;;;;7.17;6.20;;;;;;;13.57;100.00;95943.53;5034894;28;20541;-77
2021/09/04 06:40:39;;;;;;;8.77;5.93;;;;;;;13.63;100.00;95935.31;5033128;28;20422;-77
2021/09/04 06:43:04;;;;;;;10.87;6.50;;;;;;;13.79;100.00;95929.81;5030228;28;20422;-77
2021/09/04 06:45:30;;;;;;;8.53;6.77;;;;;;;13.56;100.00;95941.91;5032047;28;20459;-78
2021/09/04 06:47:55;;;;;;;7.05;6.35;;;;;;;13.52;100.00;95935.25;5032207;28;20415;-79
2021/09/04 06:50:22;;;;;;;8.25;6.38;;;;;;;13.49;100.00;95938.06;5032253;28;20430;-78
2021/09/04 06:52:47;;;;;;;8.00;6.20;;;;;;;13.53;100.00;95934.31;5032033;28;20415;-72
2021/09/04 06:55:13;;;;;;;9.18;6.43;;;;;;;13.46;100.00;95933.94;5032440;28;20425;-79
2021/09/04 06:57:38;;;;;;;7.30;6.60;;;;;;;13.53;100.00;95935.16;5032706;28;20423;-80
2021/09/04 07:00:05;;;;;;;9.27;6.47;;;;;;;13.53;100.00;95937.75;5032453;28;20426;-80
2021/09/04 07:02:30;;;;;;;12.73;6.68;;;;;;;13.67;100.00;95933.31;5032157;28;20758;-78
2021/09/04 07:04:55;;;;;;;7.47;6.72;;;;;;;13.82;100.00;95928.75;5032089;28;20422;-76
2021/09/04 07:07:22;;;;;;;8.57;7.03;;;;;;;14.16;100.00;95934.91;5030986;28;20427;-77
2021/09/04 07:09:48;;;;;;;9.23;7.53;;;;;;;14.26;100.00;95931.50;5032199;28;20959;-78
2021/09/04 07:12:13;;;;;;;7.83;6.90;;;;;;;14.34;100.00;95932.72;5033096;28;20431;-78
2021/09/04 07:14:39;;;;;;;7.77;6.97;;;;;;;14.55;100.00;95925.91;5033645;28;20465;-78
2021/09/04 07:17:04;;;;;;;12.10;8.13;;;;;;;14.66;99.88;95936.34;5033523;28;20446;-78
2021/09/04 07:19:29;;;;;;;8.63;7.73;;;;;;;14.98;100.00;95939.09;5033271;28;20415;-78
2021/09/04 07:21:55;;;;;;;10.73;7.20;;;;;;;15.53;98.48;95936.50;5032028;28;20754;-79
2021/09/04 07:24:22;;;;;;;9.63;8.10;;;;;;;15.61;94.06;95944.59;5032746;28;20426;-79
2021/09/04 07:26:47;;;;;;;10.07;7.63;;;;;;;15.72;93.80;95939.38;5032590;28;20447;-79
2021/09/04 07:29:12;;;;;;;8.18;7.10;;;;;;;15.64;93.93;95948.72;5032222;28;20466;-78
2021/09/04 07:31:38;;;;;;;9.13;8.10;;;;;;;15.75;94.13;95948.72;5031510;28;20426;-79
2021/09/04 07:34:03;;;;;;;9.57;8.13;;;;;;;15.69;94.55;95954.44;5031157;28;20423;-79
2021/09/04 07:36:29;;;;;;;10.00;7.97;;;;;;;15.68;94.90;95948.41;5031517;28;20423;-79
2021/09/04 07:38:54;;;;;;;12.10;8.25;;;;;;;15.79;94.42;95949.28;5033288;28;20419;-78
2021/09/04 07:41:21;;;;;;;10.15;8.38;;;;;;;15.83;95.35;95954.13;5033558;28;20412;-79
2021/09/04 07:43:47;;;;;;;7.93;7.15;;;;;;;16.03;94.34;95959.56;5031764;28;20927;-79
2021/09/04 07:46:12;;;;;;;9.10;7.27;;;;;;;16.33;95.07;95959.63;5031149;28;20419;-79
2021/09/04 07:48:38;;;;;;;10.30;7.27;;;;;;;16.98;92.82;95952.47;5031556;28;20430;-79
2021/09/04 07:51:03;;;;;;;10.33;7.57;;;;;;;17.53;87.83;95949.47;5033274;28;20936;-79
2021/09/04 07:53:28;;;;;;;9.88;7.18;;;;;;;17.88;83.69;95954.25;5033660;28;20425;-78
2021/09/04 07:55:54;;;;;;;8.63;7.50;;;;;;;17.90;82.70;95947.91;5033172;28;20502;-79
2021/09/04 07:58:21;;;;;;;9.77;8.63;;;;;;;17.64;82.99;95952.81;5029773;28;20933;-78
2021/09/04 08:00:46;;;;;;;8.90;8.00;;;;;;;17.92;81.42;95946.97;5032303;28;20517;-79
2021/09/04 08:03:12;;;;;;;10.68;8.18;;;;;;;18.38;81.06;95946.25;5034537;28;20443;-79
2021/09/04 08:05:37;;;;;;;9.43;8.23;;;;;;;18.52;80.16;95953.69;5034085;28;20904;-80
2021/09/04 08:08:03;;;;;;;10.00;7.67;;;;;;;18.94;79.21;95955.94;5032450;28;20423;-80
2021/09/04 08:10:28;;;;;;;11.07;8.37;;;;;;;18.93;77.51;95956.91;5032500;28;20517;-80
2021/09/04 08:12:54;;;;;;;10.07;8.60;;;;;;;18.68;76.76;95950.47;5031830;28;20466;-79
2021/09/04 08:15:21;;;;;;;12.20;8.40;;;;;;;18.54;78.55;95946.50;5032352;28;20523;-79
2021/09/04 08:17:47;;;;;;;10.98;8.43;;;;;;;18.60;78.99;95958.22;5031021;28;20419;-79
2021/09/04 08:20:13;;;;;;;9.37;8.30;;;;;;;18.63;79.09;95960.56;5029840;28;20419;-78
2021/09/04 08:22:38;;;;;;;8.73;7.68;;;;;;;18.74;78.98;95963.06;5029646;28;20824;-79
2021/09/04 08:25:04;;;;;;;10.50;7.77;;;;;;;19.41;78.76;95949.81;5031000;28;20465;-79
2021/09/04 08:27:30;;;;;;;9.43;8.25;;;;;;;19.05;76.30;95960.19;5031049;28;20884;-79
2021/09/04 08:29:55;;;;;;;9.60;8.57;;;;;;;18.92;76.56;95959.69;5030972;28;20515;-79
2021/09/04 08:32:22;;;;;;;10.23;8.18;;;;;;;18.93;74.58;95963.97;5032137;28;20414;-79
2021/09/04 08:34:47;;;;;;;16.75;9.20;;;;;;;19.03;73.87;95968.22;5032825;28;20415;-79
2021/09/04 08:37:14;;;;;;;9.10;8.00;;;;;;;19.06;76.07;95956.63;5032478;28;20431;-79
2021/09/04 08:39:39;;;;;;;10.02;8.02;;;;;;;19.24;73.85;95972.41;5034245;28;20415;-79
2021/09/04 08:42:05;;;;;;;8.77;7.10;;;;;;;19.41;73.47;95966.41;5032241;28;20414;-80
2021/09/04 08:44:30;;;;;;;8.93;7.67;;;;;;;19.39;73.35;95970.97;5075810;22;20434;-80
2021/09/04 08:46:57;;;;;;;8.17;7.23;;;;;;;19.48;73.96;95972.72;5035027;28;20981;-81
2021/09/04 08:49:24;;;;;;;8.13;7.25;;;;;;;19.69;73.49;95974.28;5035568;28;20943;-80
2021/09/04 08:51:50;;;;;;;8.90;7.60;;;;;;;19.78;71.97;95973.41;5034910;28;20567;-81
2021/09/04 08:54:15;;;;;;;8.00;7.17;;;;;;;20.20;72.37;95978.91;5035444;28;20479;-81
2021/09/04 08:56:41;;;;;;;11.18;7.57;;;;;;;20.18;71.58;95980.06;5035746;28;20446;-81
2021/09/04 08:59:07;;;;;;;9.38;7.47;;;;;;;20.26;72.15;95974.88;5034136;28;20419;-81
2021/09/04 09:01:32;;;;;;;9.98;7.63;;;;;;;20.67;70.98;95980.50;5033985;28;20453;-81
2021/09/04 09:04:04;;;;;;;8.50;7.07;;;;;;;20.80;69.92;95973.00;5035425;28;20482;-80
2021/09/04 09:06:32;;;;;;;10.48;7.45;;;;;;;20.77;69.27;95970.69;5035309;28;20454;-80
2021/09/04 09:08:58;;;;;;;10.13;6.95;;;;;;;20.89;68.36;95972.09;5037258;28;20502;-81
2021/09/04 09:11:24;;;;;;;12.05;7.40;;;;;;;20.82;68.23;95972.88;5037186;28;20518;-81
2021/09/04 09:13:52;;;;;;;9.80;7.40;;;;;;;21.05;69.14;95970.53;5037545;28;20415;-80
2021/09/04 09:16:19;;;;;;;8.23;6.65;;;;;;;21.16;68.12;95971.09;5037097;28;20423;-80
2021/09/04 09:18:55;;;;;;;8.57;7.25;;;;;;;20.93;67.05;95970.78;5038589;28;20423;-81
2021/09/04 09:21:20;;;;;;;10.55;6.47;;;;;;;21.09;69.28;95967.41;5038740;28;20414;-81
2021/09/04 09:24:06;;;;;;;8.00;7.03;;;;;;;21.10;66.49;95974.38;5038360;28;20465;-80
2021/09/04 09:26:31;;;;;;;10.18;7.20;;;;;;;20.96;65.49;95977.56;5036702;28;20430;-81
2021/09/04 09:29:13;;;;;;;9.77;6.97;;;;;;;21.89;67.52;95982.94;5037864;28;20422;-81
2021/09/04 09:31:39;;;;;;;10.25;6.70;;;;;;;21.85;62.18;95977.16;5039448;28;20458;-82
2021/09/04 09:34:08;;;;;;;11.55;6.55;;;;;;;22.55;65.10;95973.31;5038998;28;20497;-80
2021/09/04 09:36:46;;;;;;;10.68;6.85;;;;;;;22.92;60.74;95965.72;5039891;28;20419;-81
2021/09/04 09:39:13;;;;;;;6.80;6.07;;;;;;;22.77;55.49;95966.50;5037618;28;20434;-81
2021/09/04 09:41:46;;;;;;;7.95;6.22;;;;;;;23.07;56.32;95957.09;5034330;28;20431;-80
2021/09/04 09:44:17;;;;;;;7.50;6.05;;;;;;;23.46;64.44;95959.78;5034327;28;20468;-80
2021/09/04 09:46:46;;;;;;;8.07;6.28;;;;;;;23.44;59.02;95967.06;5035663;28;21059;-80
2021/09/04 09:49:12;;;;;;;6.45;5.70;;;;;;;23.48;58.41;95960.44;5035701;28;20461;-78
2021/09/04 09:51:37;;;;;;;10.03;5.97;;;;;;;23.72;57.09;95967.44;5034152;28;20426;-77
2021/09/04 09:54:03;;;;;;;5.37;4.87;;;;;;;23.79;56.64;95959.66;5033109;28;20422;-77
2021/09/04 09:56:30;;;;;;;8.20;5.60;;;;;;;23.83;58.23;95964.41;5032197;28;20426;-78
2021/09/04 09:58:56;;;;;;;6.38;5.60;;;;;;;23.82;55.30;95968.06;5036405;28;20411;-79
2021/09/04 10:01:22;;;;;;;7.85;5.53;;;;;;;23.78;59.99;95964.13;5037140;28;20423;-79
2021/09/04 10:03:49;;;;;;;6.22;5.53;;;;;;;23.78;55.64;95955.38;5034986;28;20419;-79
2021/09/04 10:06:15;;;;;;;7.60;6.47;;;;;;;23.47;53.76;95955.31;5036435;28;20419;-79
2021/09/04 10:08:41;;;;;;;6.60;5.22;;;;;;;23.52;56.25;95956.44;5031128;28;20922;-79
2021/09/04 10:11:07;;;;;;;7.63;5.27;;;;;;;23.59;55.35;95960.06;5036271;28;20435;-79
2021/09/04 10:13:34;;;;;;;7.50;5.80;;;;;;;23.56;51.56;95951.66;5035481;28;20422;-79
2021/09/04 10:15:59;;;;;;;5.65;5.05;;;;;;;23.72;59.90;95954.22;5027230;28;20896;-79
2021/09/04 10:18:27;;;;;;;7.93;5.57;;;;;;;23.80;54.22;95948.88;5034075;28;20458;-79
2021/09/04 10:21:06;;;;;;;7.65;5.28;;;;;;;23.80;53.62;95951.53;5035061;28;20477;-79
2021/09/04 10:23:36;;;;;;;5.68;4.97;;;;;;;23.78;54.61;95947.44;5036951;28;20422;-79
2021/09/04 10:26:26;;;;;;;9.32;5.60;;;;;;;23.74;54.15;95949.59;5037103;28;20520;-79
2021/09/04 10:29:00;;;;;;;6.28;5.55;;;;;;;23.56;58.15;95951.66;5037968;28;20423;-79
2021/09/04 10:31:48;;;;;;;8.85;6.00;;;;;;;23.65;58.40;95945.31;5038311;28;20462;-79
2021/09/04 10:34:14;;;;;;;7.33;6.00;;;;;;;23.72;54.00;95948.13;5036959;28;20430;-79
2021/09/04 10:36:54;;;;;;;6.28;5.13;;;;;;;23.55;53.67;95945.53;5036598;28;20415;-79
2021/09/04 10:39:20;;;;;;;7.30;5.28;;;;;;;23.97;57.56;95951.47;5036698;28;20419;-79
2021/09/04 10:41:48;;;;;;;9.18;5.50;;;;;;;24.05;52.53;95944.28;5036875;28;20537;-79
2021/09/04 10:44:15;;;;;;;8.35;5.85;;;;;;;24.19;57.74;95937.41;5035330;28;20563;-79
2021/09/04 10:46:42;;;;;;;10.93;4.95;;;;;;;24.28;53.89;95941.63;5029415;28;20534;-79
2021/09/04 10:49:08;;;;;;;7.28;6.03;;;;;;;24.43;54.27;95940.88;5025709;28;20579;-79
2021/09/04 10:51:44;;;;;;;8.00;6.10;;;;;;;24.32;55.12;95931.50;5031696;28;20415;-79
2021/09/04 10:54:10;;;;;;;8.02;5.68;;;;;;;23.54;50.68;95935.94;5026897;28;20431;-79
2021/09/04 10:56:37;;;;;;;5.47;4.57;;;;;;;23.90;54.06;95938.09;5028140;28;20421;-78
2021/09/04 10:59:03;;;;;;;6.63;5.32;;;;;;;23.99;53.32;95937.06;5017009;28;20431;-79
2021/09/04 11:01:53;;;;;;;6.55;5.22;;;;;;;24.04;55.80;95941.81;5022544;28;20936;-79
2021/09/04 11:04:19;;;;;;;7.65;5.38;;;;;;;23.87;56.88;95936.63;5043424;28;20427;-78
2021/09/04 11:06:49;;;;;;;7.73;6.43;;;;;;;23.82;56.07;95941.63;5039094;28;20422;-78
2021/09/04 11:09:16;;;;;;;6.35;5.75;;;;;;;23.54;52.82;95933.28;5037068;28;20423;-79
2021/09/04 11:11:42;;;;;;;6.15;5.45;;;;;;;23.47;51.48;95931.50;5033611;28;20464;-79
2021/09/04 11:14:16;;;;;;;6.53;5.53;;;;;;;23.57;53.86;95937.41;5025543;28;20412;-79
2021/09/04 11:16:50;;;;;;;7.78;5.82;;;;;;;23.67;52.47;95930.13;5015748;28;20456;-78
2021/09/04 11:19:21;;;;;;;9.30;5.15;;;;;;;24.11;54.97;95927.72;5024980;28;20512;-78
2021/09/04 11:21:59;;;;;;;5.68;5.03;;;;;;;24.31;56.65;95929.88;5028548;28;20425;-79
2021/09/04 11:24:27;;;;;;;8.25;5.13;;;;;;;24.23;52.34;95925.47;5029470;28;20426;-79